^^
Datos históricos de la estación: Murcia-Puente Tocinos
Diario Informe para Octubre 29, 2019 Unidades:  Ingés    Métrico   Ambas
Diario Semanal Mensual Anual
  Máxima: Mínima: Promedio:
Temperatura: 81 °F 58.3 °F 67.8 °F
Punto de rocio: 61.3 °F 52.9 °F 56.8 °F
Humedad: 91% 38.5% 71%
Velocidad viento: 8.1mph 1.4mph 4.3mph
Racha viento: 15mph - -
Viento- - SSO
Presión: 30.1 in 30 in -
Precipitación: 0 in    
 
 
Tabla de datos para Octubre 29, 2019
Hora Temperatura Punto de rocio Presión Viento Velocidad viento Racha viento Humedad Intensidad lluvia(por hora) Nubes
00:04 61.5 °F 58.6 °F 30 in SSO 2.5 mph 5.9 mph 90% 0 in
00:09 61.7 °F 58.6 °F 30 in SSO 2.4 mph 6.2 mph 90% 0 in
00:14 61.7 °F 58.6 °F 30 in SO 3.6 mph 6 mph 90% 0 in
00:19 61.7 °F 58.6 °F 30 in SSO 4 mph 8.1 mph 89.6% 0 in
00:24 61.5 °F 58.6 °F 30 in Sur 4.2 mph 8 mph 90% 0 in
00:29 61.5 °F 58.6 °F 30 in Sur 4.3 mph 7 mph 90% 0 in
00:34 61.3 °F 58.5 °F 30 in SSO 4.3 mph 7 mph 90% 0 in
00:39 61.3 °F 58.5 °F 30 in SSO 4.3 mph 7 mph 90% 0 in
00:44 61.3 °F 58.5 °F 30 in Sur 4.3 mph 7 mph 90% 0 in
00:49 61.2 °F 58.3 °F 30 in Sur 4.3 mph 6 mph 90% 0 in
00:54 61.2 °F 58.3 °F 30 in SSO 3.8 mph 6 mph 90% 0 in
00:59 61.2 °F 58.1 °F 30 in SSO 3.6 mph 5.8 mph 90% 0 in
01:04 61 °F 57.9 °F 30 in Sur 3.6 mph 6 mph 90% 0 in
01:09 61 °F 57.9 °F 30 in Sur 3.6 mph 6 mph 90% 0 in
01:14 61 °F 57.9 °F 30 in Sur 3.2 mph 6 mph 90% 0 in
01:19 60.8 °F 57.9 °F 30 in SSE 3.1 mph 6.2 mph 90.5% 0 in
01:24 60.6 °F 57.9 °F 30 in Sur 3.1 mph 6 mph 91% 0 in
01:29 60.6 °F 57.9 °F 30 in SSE 3.1 mph 5 mph 91% 0 in
01:34 60.4 °F 57.9 °F 30 in Sur 2.9 mph 5.2 mph 91% 0 in
01:39 60.4 °F 57.7 °F 30 in Sur 2.9 mph 5.9 mph 91% 0 in
01:44 60.4 °F 57.7 °F 30 in SSE 3.4 mph 6 mph 91% 0 in
01:49 60.4 °F 57.7 °F 30 in SSE 3.6 mph 6.9 mph 91% 0 in
01:54 60.3 °F 57.7 °F 30 in SSE 4.1 mph 7 mph 91% 0 in
01:59 60.3 °F 57.6 °F 30 in Sur 4.3 mph 6.9 mph 91% 0 in
02:04 60.3 °F 57.6 °F 30 in Sur 4.3 mph 7 mph 91% 0 in
02:09 60.1 °F 57.4 °F 30 in Sur 4.3 mph 6 mph 91% 0 in
02:14 60.1 °F 57.4 °F 30 in Sur 4.1 mph 5.9 mph 91% 0 in
02:19 60.1 °F 57.4 °F 30 in SSE 4 mph 6 mph 91% 0 in
02:24 59.9 °F 57.4 °F 30 in Sur 3.7 mph 6 mph 91% 0 in
02:29 59.7 °F 57.2 °F 30 in SSE 3.6 mph 5.2 mph 91% 0 in
02:34 59.7 °F 57 °F 30 in SSE 3.6 mph 5 mph 91% 0 in
02:39 59.7 °F 57 °F 30 in SSO 3.6 mph 5 mph 91% 0 in
02:44 59.7 °F 57 °F 30 in Sur 3 mph 5.2 mph 91% 0 in
02:49 59.7 °F 57 °F 30 in SSO 2.9 mph 5 mph 91% 0 in
02:54 59.7 °F 57 °F 30 in OSO 2.9 mph 4.7 mph 91% 0 in
02:59 59.7 °F 57 °F 30 in OSO 2.9 mph 5.2 mph 91% 0 in
03:04 59.7 °F 57 °F 30 in SO 2.5 mph 5.2 mph 91% 0 in
03:09 59.7 °F 57 °F 30 in SO 2.4 mph 5 mph 91% 0 in
03:14 59.7 °F 57 °F 30 in SO 2.8 mph 5.2 mph 91% 0 in
03:19 59.7 °F 57 °F 30 in SSO 2.9 mph 5.2 mph 90.7% 0 in
03:24 59.7 °F 56.8 °F 30 in Sur 2.9 mph 5 mph 90% 0 in
03:29 59.5 °F 56.7 °F 30 in Sur 2.9 mph 5.2 mph 90% 0 in
03:34 59.5 °F 56.5 °F 30 in SSE 2.9 mph 5 mph 90% 0 in
03:39 59.4 °F 56.7 °F 30 in SSE 2.9 mph 5.9 mph 90.7% 0 in
03:44 59.4 °F 56.7 °F 30 in Sur 3.7 mph 6.2 mph 91% 0 in
03:49 59.4 °F 56.7 °F 30 in Sur 4 mph 6.9 mph 91% 0 in
03:54 59.4 °F 56.7 °F 30 in SSO 4.2 mph 7.4 mph 91% 0 in
03:59 59.4 °F 56.7 °F 30 in Sur 4.3 mph 7 mph 91% 0 in
04:04 59.4 °F 56.7 °F 30 in Sur 5 mph 7 mph 91% 0 in
04:09 59.4 °F 56.7 °F 30 in Sur 5.2 mph 7.4 mph 91% 0 in
04:14 59.4 °F 56.7 °F 30 in Sur 4.8 mph 7 mph 91% 0 in
04:19 59.2 °F 56.7 °F 30 in SSO 4.7 mph 7 mph 91% 0 in
04:24 59.2 °F 56.7 °F 30 in SSO 4.7 mph 7 mph 91% 0 in
04:29 59.2 °F 56.7 °F 30 in SO 4.7 mph 6 mph 91% 0 in
04:34 59.2 °F 56.7 °F 30 in SSO 3.5 mph 5 mph 91% 0 in
04:39 59.2 °F 56.7 °F 30 in SSO 3.1 mph 5.8 mph 91% 0 in
04:44 59.2 °F 56.7 °F 30 in SSO 3.5 mph 6.9 mph 91% 0 in
04:49 59.2 °F 56.7 °F 30 in Sur 3.6 mph 7 mph 91% 0 in
04:54 59.2 °F 56.7 °F 30 in SSO 3.2 mph 6.2 mph 91% 0 in
04:59 59.2 °F 56.7 °F 30 in SSO 3.1 mph 6 mph 91% 0 in
05:04 59.2 °F 56.7 °F 30 in SO 3.8 mph 6 mph 91% 0 in
05:09 59.2 °F 56.7 °F 30 in SO 4 mph 5 mph 91% 0 in
05:14 59.2 °F 56.5 °F 30 in SSE 3.4 mph 6.2 mph 90.8% 0 in
05:19 59.2 °F 56.1 °F 30 in Sur 3.1 mph 6 mph 90% 0 in
05:24 59.2 °F 56.5 °F 30 in SSO 3.5 mph 5.9 mph 90.5% 0 in
05:29 59.2 °F 56.5 °F 30 in SSO 3.6 mph 6.9 mph 91% 0 in
05:34 59 °F 56.5 °F 30 in SSO 3.9 mph 7 mph 91% 0 in
05:39 59 °F 56.1 °F 30 in SO 4 mph 7 mph 90.1% 0 in
05:44 58.8 °F 55.9 °F 30 in SSO 4 mph 6.9 mph 90% 0 in
05:49 58.8 °F 55.9 °F 30 in SSO 4 mph 7 mph 90% 0 in
05:54 58.8 °F 55.9 °F 30 in SSO 4 mph 6 mph 90% 0 in
05:59 58.8 °F 55.9 °F 30 in Sur 4 mph 6.9 mph 90% 0 in
06:04 58.6 °F 55.8 °F 30 in Sur 4 mph 7 mph 90% 0 in
06:09 58.6 °F 55.8 °F 30 in SSO 4 mph 7 mph 90% 0 in
06:14 58.6 °F 55.8 °F 30 in SSO 4 mph 6 mph 90% 0 in
06:19 58.6 °F 55.6 °F 30 in SSO 4 mph 6 mph 90% 0 in
06:24 58.6 °F 55.6 °F 30 in SSO 4 mph 6 mph 90% 0 in
06:29 58.6 °F 55.8 °F 30 in SSO 4 mph 6.2 mph 90% 0 in
06:34 58.6 °F 55.8 °F 30 in SSE 4 mph 6.4 mph 90% 0 in
06:39 58.6 °F 55.8 °F 30 in Sur 4 mph 7 mph 90% 0 in
06:44 58.5 °F 55.6 °F 30 in SSO 4.2 mph 7 mph 90% 0 in
06:49 58.5 °F 55.6 °F 30 in SSO 4.3 mph 6.9 mph 90% 0 in
06:54 58.5 °F 55.6 °F 30 in SO 4.3 mph 7 mph 90% 0 in
06:59 58.5 °F 55.6 °F 30 in SO 4.3 mph 7 mph 90% 0 in
07:04 58.5 °F 55.6 °F 30 in SO 4.1 mph 6.9 mph 90% 0 in
07:09 58.5 °F 55.6 °F 30 in SO 4 mph 7 mph 90% 0 in
07:14 58.5 °F 55.6 °F 30 in SO 3.7 mph 5 mph 90% 0 in
07:19 58.5 °F 55.6 °F 30 in SO 3.6 mph 6.2 mph 90% 0 in
07:24 58.5 °F 55.6 °F 30 in SO 3.6 mph 6.2 mph 90% 0 in
07:29 58.5 °F 55.4 °F 30 in SO 3.6 mph 6.9 mph 90% 0 in
07:34 58.5 °F 55.4 °F 30 in SO 4.4 mph 7 mph 90% 0 in
07:39 58.5 °F 55.4 °F 30 in SO 4.7 mph 7 mph 89.9% 0 in
07:44 58.5 °F 55.4 °F 30 in SO 4.7 mph 6 mph 89.8% 0 in
07:49 58.5 °F 55.4 °F 30 in SO 4.7 mph 6 mph 90% 0 in
07:54 58.5 °F 55.6 °F 30 in SO 3.5 mph 5 mph 90% 0 in
07:59 58.5 °F 55.4 °F 30 in Sur 3.1 mph 5 mph 89.7% 0 in
08:04 58.3 °F 55 °F 30 in NE 2.1 mph 5 mph 89% 0 in
08:09 58.3 °F 55.4 °F 30 in NE 1.8 mph 3 mph 89.7% 0 in
08:14 58.5 °F 55.4 °F 30 in OSO 1.5 mph 3.5 mph 90% 0 in
08:19 58.6 °F 55.8 °F 30 in SO 1.4 mph 3.6 mph 90% 0 in
08:24 58.8 °F 55.6 °F 30 in Este 1.7 mph 4.6 mph 88.8% 0 in
08:29 59.2 °F 55.6 °F 30 in SE 1.8 mph 5 mph 88.1% 0 in
08:34 59.4 °F 55.6 °F 30 in SSO 2.2 mph 5 mph 87.2% 0 in
08:39 59.4 °F 55.6 °F 30 in SSO 2.4 mph 5 mph 87% 0 in
08:44 59.5 °F 55.8 °F 30 in Sur 2.8 mph 5 mph 87% 0 in
08:49 59.7 °F 55.8 °F 30 in SO 2.9 mph 5 mph 87% 0 in
08:54 60.3 °F 56.1 °F 30 in Sur 2.2 mph 4.6 mph 86.5% 0 in
08:59 60.4 °F 56.3 °F 30 in SSO 2 mph 5.9 mph 85.8% 0 in
09:04 61 °F 56.5 °F 30 in SSO 2.9 mph 6.9 mph 85% 0 in
09:09 61.3 °F 56.7 °F 30 in Sur 3.1 mph 7 mph 84.8% 0 in
09:14 61.9 °F 57 °F 30 in Sur 3.1 mph 5.8 mph 83.8% 0 in
09:19 62.4 °F 57 °F 30 in Sur 3.1 mph 6 mph 82.1% 0 in
09:24 63 °F 57 °F 30 in SSO 2.6 mph 5.8 mph 80.6% 0 in
09:29 63.3 °F 56.8 °F 30 in SSO 2.4 mph 6 mph 79.3% 0 in
09:34 63.7 °F 56.8 °F 30 in SSO 3.3 mph 5.8 mph 78.1% 0 in
09:39 64 °F 57 °F 30 in SO 3.6 mph 6.2 mph 77.7% 0 in
09:44 64.4 °F 56.7 °F 30 in SO 3.2 mph 6.9 mph 76% 0 in
09:49 64.8 °F 56.8 °F 30 in OSO 3.1 mph 7 mph 75.7% 0 in
09:54 64.9 °F 56.8 °F 30 in OSO 3.1 mph 6.4 mph 74.9% 0 in
09:59 65.3 °F 56.7 °F 30 in OSO 3.1 mph 7 mph 73.7% 0 in
10:04 65.7 °F 56.8 °F 30 in OSO 3.5 mph 6 mph 73.4% 0 in
10:09 65.8 °F 56.7 °F 30 in SO 3.6 mph 6.9 mph 72.5% 0 in
10:14 66.2 °F 56.7 °F 30 in SO 3.6 mph 7 mph 71.3% 0 in
10:19 66.7 °F 56.5 °F 30 in Sur 3.6 mph 6 mph 69.8% 0 in
10:24 67.1 °F 56.3 °F 30 in SSO 3.9 mph 8.1 mph 68.2% 0 in
10:29 67.5 °F 56.1 °F 30 in SSO 4 mph 8.7 mph 66.8% 0 in
10:34 68 °F 55.6 °F 30 in SSO 4.9 mph 10.7 mph 64.7% 0 in
10:39 68.4 °F 55.6 °F 30 in SSO 5.2 mph 11 mph 63.8% 0 in
10:44 68.9 °F 55.4 °F 30 in SSO 5.2 mph 8.1 mph 62.2% 0 in
10:49 69.4 °F 55.4 °F 30 in SSO 5.2 mph 8.1 mph 61.1% 0 in
10:54 69.8 °F 55.8 °F 30 in SSO 5.3 mph 8 mph 61% 0 in
10:59 70.2 °F 56.1 °F 30 in SSO 5.4 mph 11.8 mph 61% 0 in
11:04 70.3 °F 56.1 °F 30 in SSO 5.8 mph 12 mph 60.7% 0 in
11:09 70.7 °F 55.9 °F 30 in SSO 5.9 mph 9.7 mph 59.5% 0 in
11:14 71.1 °F 55.9 °F 30 in SSO 5.9 mph 10.4 mph 58.8% 0 in
11:19 71.4 °F 55.8 °F 30 in SO 5.9 mph 10 mph 57.8% 0 in
11:24 71.8 °F 55.8 °F 30 in SO 5.9 mph 10 mph 57.1% 0 in
11:29 72.1 °F 55.9 °F 30 in SO 5.9 mph 10.7 mph 56.6% 0 in
11:34 72.5 °F 55.9 °F 30 in SO 5.9 mph 13.8 mph 56.1% 0 in
11:39 72.9 °F 56.1 °F 30 in SO 5.9 mph 14 mph 56% 0 in
11:44 72.9 °F 56.3 °F 30 in SO 6.3 mph 12 mph 56% 0 in
11:49 73 °F 56.5 °F 30 in OSO 6.4 mph 12 mph 56% 0 in
11:54 73.4 °F 56.7 °F 30 in SO 6 mph 10.4 mph 55.8% 0 in
11:59 73.8 °F 56.3 °F 30 in OSO 5.9 mph 12.7 mph 54.4% 0 in
12:04 73.9 °F 56.3 °F 30 in SO 5.9 mph 13 mph 53.9% 0 in
12:09 74.1 °F 56.1 °F 30 in SO 5.9 mph 14.5 mph 53.3% 0 in
12:14 74.5 °F 55.8 °F 30 in OSO 6.6 mph 15 mph 52.4% 0 in
12:19 74.7 °F 55.8 °F 30 in OSO 6.9 mph 13 mph 51.8% 0 in
12:24 74.8 °F 55.6 °F 30 in SO 7.8 mph 13.8 mph 51.2% 0 in
12:29 75 °F 55.8 °F 30 in Oeste 8.1 mph 14 mph 51% 0 in
12:34 75.4 °F 55.8 °F 30 in OSO 6.5 mph 14 mph 50.6% 0 in
12:39 75.6 °F 55.6 °F 30 in Oeste 5.9 mph 14 mph 50% 0 in
12:44 75.7 °F 55.8 °F 30 in Oeste 6.6 mph 13 mph 50% 0 in
12:49 75.9 °F 55.9 °F 30 in OSO 6.9 mph 12 mph 50% 0 in
12:54 76.3 °F 55.9 °F 30 in OSO 6.4 mph 12 mph 49.7% 0 in
12:59 76.5 °F 56.1 °F 30 in SO 6.2 mph 12 mph 49.3% 0 in
13:04 76.6 °F 55.9 °F 30 in Oeste 5.6 mph 12 mph 48.6% 0 in
13:09 76.8 °F 55.6 °F 30 in Oeste 5.4 mph 9.2 mph 48.1% 0 in
13:14 76.8 °F 55.6 °F 30 in OSO 5.4 mph 11.8 mph 48.2% 0 in
13:19 76.8 °F 55.8 °F 30 in SO 5.4 mph 12 mph 48% 0 in
13:24 77.2 °F 55.9 °F 30 in OSO 6.2 mph 11.4 mph 47.9% 0 in
13:29 77.2 °F 55.8 °F 30 in OSO 6.4 mph 12 mph 47.5% 0 in
13:34 77.5 °F 55.8 °F 30 in OSO 6 mph 10.4 mph 47.1% 0 in
13:39 77.7 °F 55.4 °F 30 in OSO 5.9 mph 13 mph 46.2% 0 in
13:44 77.7 °F 55.6 °F 30 in Oeste 5.9 mph 13 mph 46.4% 0 in
13:49 77.9 °F 55.8 °F 30 in ONO 5.9 mph 10 mph 46.5% 0 in
13:54 78.1 °F 55.8 °F 30 in Oeste 5.4 mph 13 mph 46.1% 0 in
13:59 78.1 °F 55.2 °F 30 in Oeste 5.2 mph 13 mph 45.3% 0 in
14:04 78.3 °F 55.9 °F 30 in SO 6.2 mph 12 mph 46.3% 0 in
14:09 78.3 °F 56.3 °F 30 in SO 6.4 mph 9.2 mph 47.1% 0 in
14:14 78.3 °F 56.3 °F 30 in SO 6 mph 12.7 mph 47.1% 0 in
14:19 78.3 °F 56.5 °F 30 in SO 5.9 mph 13 mph 47% 0 in
14:24 78.4 °F 56.1 °F 30 in SO 5.4 mph 9 mph 46.5% 0 in
14:29 78.8 °F 56.1 °F 30 in OSO 5.2 mph 8.7 mph 46% 0 in
14:34 79 °F 56.3 °F 30 in OSO 4.8 mph 9.2 mph 45.8% 0 in
14:39 78.8 °F 56.1 °F 30 in SO 4.7 mph 9.7 mph 45.5% 0 in
14:44 79 °F 55.8 °F 30 in SO 4.4 mph 10 mph 44.9% 0 in
14:49 79.2 °F 56.1 °F 30 in OSO 4.3 mph 9.7 mph 45.3% 0 in
14:54 79.2 °F 55.9 °F 30 in Oeste 4.3 mph 10 mph 45% 0 in
14:59 79.3 °F 54.9 °F 30 in Oeste 4.3 mph 7.4 mph 43.1% 0 in
15:04 79.3 °F 55.2 °F 30 in OSO 3.4 mph 8.1 mph 43.4% 0 in
15:09 79.5 °F 55.4 °F 30 in SO 3.1 mph 9.2 mph 43.3% 0 in
15:14 79.3 °F 55 °F 30 in SSO 4.3 mph 9 mph 43% 0 in
15:19 79.3 °F 55 °F 30 in SSO 4.7 mph 8.1 mph 43.1% 0 in
15:24 79.5 °F 55.4 °F 30 in Sur 4.4 mph 9.2 mph 43.4% 0 in
15:29 79.5 °F 55 °F 30 in Sur 4.3 mph 9 mph 42.8% 0 in
15:34 79.5 °F 54.3 °F 30 in SO 5 mph 8.1 mph 41.9% 0 in
15:39 79.9 °F 54.1 °F 30 in SSO 5.2 mph 8 mph 41% 0 in
15:44 80.1 °F 54.1 °F 30 in Sur 4 mph 9.2 mph 41% 0 in
15:49 80.1 °F 54.3 °F 30 in SO 3.6 mph 9 mph 41.2% 0 in
15:54 80.1 °F 54.1 °F 30 in SO 4.4 mph 7 mph 41% 0 in
15:59 80.2 °F 53.8 °F 30 in SSO 4.7 mph 6.2 mph 40.1% 0 in
16:04 80.4 °F 53.8 °F 30 in SSO 3.3 mph 7.4 mph 40% 0 in
16:09 80.4 °F 54.3 °F 30 in SSO 2.9 mph 7.4 mph 40.6% 0 in
16:14 80.2 °F 54.3 °F 30 in Sur 3.7 mph 7.4 mph 41% 0 in
16:19 80.2 °F 54.5 °F 30 in SSE 4 mph 7 mph 41% 0 in
16:24 80.4 °F 54.1 °F 30 in SSE 2.8 mph 5.9 mph 40.4% 0 in
16:29 80.4 °F 54.1 °F 30 in Sur 2.4 mph 6.2 mph 40.3% 0 in
16:34 80.4 °F 54 °F 30 in Sur 3.3 mph 6.9 mph 40% 0 in
16:39 80.4 °F 54 °F 30 in Sur 3.6 mph 7 mph 40% 0 in
16:44 80.8 °F 54 °F 30 in SSE 2.4 mph 4 mph 39.6% 0 in
16:49 81 °F 53.6 °F 30 in SO 2 mph 4.6 mph 38.9% 0 in
16:54 81 °F 53.8 °F 30 in Oeste 2 mph 5 mph 39% 0 in
16:59 81 °F 53.6 °F 30 in Oeste 2 mph 4.6 mph 38.8% 0 in
17:04 81 °F 53.6 °F 30 in SSO 2.3 mph 5 mph 38.7% 0 in
17:09 81 °F 53.4 °F 30 in SSO 2.4 mph 4.6 mph 38.5% 0 in
17:14 81 °F 53.4 °F 30 in SSO 2.1 mph 6.2 mph 38.6% 0 in
17:19 80.6 °F 53.4 °F 30 in SO 2 mph 6 mph 39% 0 in
17:24 80.4 °F 53.2 °F 30 in SSO 3.5 mph 6.2 mph 39.1% 0 in
17:29 80.1 °F 53.2 °F 30 in SO 4 mph 6 mph 39.6% 0 in
17:34 79.9 °F 53.4 °F 30 in SSO 4 mph 6 mph 40% 0 in
17:39 79.7 °F 53.2 °F 30 in SSO 4 mph 6.2 mph 40% 0 in
17:44 79.5 °F 53.1 °F 30 in SSO 4 mph 6.2 mph 40% 0 in
17:49 79.3 °F 52.9 °F 30 in SSO 4 mph 6 mph 40% 0 in
17:54 79.2 °F 53.1 °F 30 in SSE 4 mph 6 mph 40.5% 0 in
17:59 78.8 °F 55 °F 30 in ESE 4 mph 6.9 mph 44.1% 0 in
18:04 77.7 °F 57 °F 30 in ESE 3.7 mph 7 mph 49% 0 in
18:09 76.5 °F 58.3 °F 30 in ESE 3.6 mph 7 mph 53.2% 0 in
18:14 75.7 °F 59.2 °F 30 in ESE 4.1 mph 7 mph 56.6% 0 in
18:19 75 °F 59.9 °F 30 in ESE 4.3 mph 7.4 mph 59.2% 0 in
18:24 74.5 °F 60.4 °F 30 in SE 4.6 mph 8.5 mph 61.7% 0 in
18:29 74.1 °F 61 °F 30 in SE 4.7 mph 9 mph 63.5% 0 in
18:34 73.8 °F 61.2 °F 30 in SE 4.7 mph 8 mph 64.5% 0 in
18:39 73.6 °F 61.3 °F 30 in SE 4.7 mph 7 mph 65.4% 0 in
18:44 73.4 °F 61.3 °F 30 in SE 4.7 mph 7 mph 66% 0 in
18:49 73.2 °F 61.3 °F 30 in SSE 4.7 mph 7 mph 66.5% 0 in
18:54 72.9 °F 61.3 °F 30 in SSE 4.2 mph 7 mph 67% 0 in
18:59 72.9 °F 61 °F 30 in SSO 4 mph 7 mph 66.3% 0 in
19:04 72.9 °F 60.4 °F 30 in SO 4 mph 7.4 mph 65% 0 in
19:09 72.7 °F 60.4 °F 30 in SO 4 mph 7 mph 65.7% 0 in
19:14 72.3 °F 60.4 °F 30 in SO 4.2 mph 10.4 mph 66% 0 in
19:19 72.1 °F 60.4 °F 30 in SO 4.3 mph 10.7 mph 67% 0 in
19:24 72 °F 60.3 °F 30 in SO 5.2 mph 12.3 mph 67% 0 in
19:29 71.6 °F 60.3 °F 30 in SO 5.4 mph 13 mph 67.7% 0 in
19:34 71.2 °F 60.3 °F 30 in SO 6 mph 11.2 mph 68% 0 in
19:39 71.1 °F 60.4 °F 30 in SSO 6.2 mph 12 mph 68.9% 0 in
19:44 70.9 °F 60.4 °F 30 in SSO 6.3 mph 12 mph 69.5% 0 in
19:49 70.5 °F 60.3 °F 30 in SSO 6.4 mph 10.4 mph 70% 0 in
19:54 70.3 °F 60.4 °F 30 in SSO 6 mph 9.2 mph 70.8% 0 in
19:59 70.2 °F 60.3 °F 30 in SSO 5.9 mph 10.4 mph 71% 0 in
20:04 70 °F 60.3 °F 30 in Sur 5.9 mph 10 mph 71.2% 0 in
20:09 69.8 °F 60.4 °F 30 in Sur 5.9 mph 8 mph 72% 0 in
20:14 69.4 °F 60.3 °F 30 in Sur 5 mph 9.2 mph 72.3% 0 in
20:19 69.3 °F 60.3 °F 30 in SSO 4.7 mph 10.2 mph 73% 0 in
20:24 69.3 °F 60.1 °F 30 in SSO 5.1 mph 10.4 mph 73% 0 in
20:29 69.1 °F 60.3 °F 30 in SSO 5.2 mph 10 mph 73.6% 0 in
20:34 69.1 °F 60.4 °F 30 in SSO 4.8 mph 6.4 mph 74% 0 in
20:39 68.9 °F 60.3 °F 30 in SSO 4.7 mph 7 mph 74% 0 in
20:44 68.9 °F 60.3 °F 30 in SSO 4.2 mph 6 mph 74% 0 in
20:49 68.7 °F 59.9 °F 30 in SO 4 mph 6 mph 73.3% 0 in
20:54 68.7 °F 59.7 °F 30 in SO 3.7 mph 6.9 mph 73% 0 in
20:59 68.7 °F 59.7 °F 30 in SO 3.6 mph 7 mph 73.2% 0 in
21:04 68.5 °F 59.9 °F 30 in SO 3.9 mph 6.2 mph 74% 0 in
21:09 68.4 °F 59.7 °F 30 in SSO 4 mph 7.4 mph 74% 0 in
21:14 68.2 °F 59.7 °F 30 in SSO 4.5 mph 9.2 mph 74.3% 0 in
21:19 68.2 °F 59.9 °F 30 in SSO 4.7 mph 9 mph 75% 0 in
21:24 68.2 °F 60.1 °F 30 in SSO 5.1 mph 9.2 mph 75% 0 in
21:29 68.2 °F 59.9 °F 30 in SSO 5.2 mph 9.2 mph 75% 0 in
21:34 67.8 °F 59.7 °F 30 in SO 5.3 mph 11.2 mph 75% 0 in
21:39 67.8 °F 59.5 °F 30 in SSO 5.4 mph 12 mph 75% 0 in
21:44 67.6 °F 59.5 °F 30 in SSO 6 mph 11 mph 75.1% 0 in
21:49 67.6 °F 59.5 °F 30 in SSO 6.2 mph 10.4 mph 75.2% 0 in
21:54 67.6 °F 59.4 °F 30 in SSO 6.2 mph 10 mph 75% 0 in
21:59 67.6 °F 59.4 °F 30 in SSO 6.2 mph 9 mph 75% 0 in
22:04 67.6 °F 59.4 °F 30 in SSO 5.6 mph 8 mph 75% 0 in
22:09 67.5 °F 59.4 °F 30 in SSO 5.4 mph 7 mph 75% 0 in
22:14 67.5 °F 59.2 °F 30 in Sur 4.5 mph 7 mph 75% 0 in
22:19 67.3 °F 59.2 °F 30 in Sur 4.3 mph 6 mph 75% 0 in
22:24 67.3 °F 59.2 °F 30 in SSO 3.8 mph 5.9 mph 75% 0 in
22:29 67.1 °F 59 °F 30 in Sur 3.6 mph 6.2 mph 75% 0 in
22:34 67.1 °F 58.8 °F 30 in SSO 3.9 mph 6.2 mph 75% 0 in
22:39 66.9 °F 58.6 °F 30.1 in SO 4 mph 6.2 mph 74.8% 0 in
22:44 67.1 °F 58.5 °F 30.1 in SO 3.7 mph 6.9 mph 73.9% 0 in
22:49 67.3 °F 58.3 °F 30.1 in SO 3.6 mph 7 mph 72.6% 0 in
22:54 67.5 °F 57.9 °F 30.1 in SSO 4.4 mph 8.5 mph 71.6% 0 in
22:59 67.8 °F 57.7 °F 30.1 in SSO 4.7 mph 9.2 mph 70.2% 0 in
23:04 68 °F 57.4 °F 30.1 in SSO 6 mph 10.7 mph 69.1% 0 in
23:09 67.8 °F 57.4 °F 30.1 in SSO 6.4 mph 11 mph 69% 0 in
23:14 67.8 °F 57.4 °F 30.1 in SSO 6.4 mph 10.7 mph 69.5% 0 in
23:19 67.6 °F 57.4 °F 30.1 in SSO 6.4 mph 11 mph 70% 0 in
23:24 67.5 °F 57.2 °F 30.1 in SSO 6.3 mph 10 mph 70% 0 in
23:29 67.3 °F 57.2 °F 30.1 in SSO 6.2 mph 9.2 mph 70% 0 in
23:34 67.3 °F 57.2 °F 30.1 in SSO 6 mph 9.2 mph 70% 0 in
23:39 67.3 °F 57.2 °F 30.1 in SSO 5.9 mph 10.4 mph 70% 0 in
23:44 67.5 °F 57 °F 30.1 in SSO 6.2 mph 11.5 mph 69.5% 0 in
23:49 67.5 °F 56.8 °F 30.1 in SSO 6.2 mph 12 mph 69% 0 in
23:54 67.6 °F 56.8 °F 30.1 in SSO 7.1 mph 12 mph 68.4% 0 in
23:59 67.6 °F 56.7 °F 30.1 in SSO 7.4 mph 13 mph 68% 0 in
Murcia-Puente Tocinos, España
Compliments of Weather Underground - 3.25 mb

La estación de MeteoMurcia.com, publica sus datos en los siguientes proyectos:

Weather Underground PWS IMURCIAP2 Meteoclimatic www.awekas.at

W3Counter
Web Analytics